sensor_id;sensor_type;location;lat;lon;timestamp;temperature;humidity
59148;DHT22;44930;52.878;6.168;2023-01-20T00:01:07;0.40;99.90
59148;DHT22;44930;52.878;6.168;2023-01-20T00:03:37;0.60;99.90
59148;DHT22;44930;52.878;6.168;2023-01-20T00:08:29;0.50;99.90
59148;DHT22;44930;52.878;6.168;2023-01-20T00:10:55;0.60;99.90
59148;DHT22;44930;52.878;6.168;2023-01-20T00:13:20;0.30;99.90
59148;DHT22;44930;52.878;6.168;2023-01-20T00:18:13;0.30;99.90
59148;DHT22;44930;52.878;6.168;2023-01-20T00:20:38;0.20;99.90
59148;DHT22;44930;52.878;6.168;2023-01-20T00:23:04;0.20;99.90
59148;DHT22;44930;52.878;6.168;2023-01-20T00:25:29;0.40;99.90
59148;DHT22;44930;52.878;6.168;2023-01-20T00:27:55;0.30;99.90
59148;DHT22;44930;52.878;6.168;2023-01-20T00:32:47;0.20;99.90
59148;DHT22;44930;52.878;6.168;2023-01-20T00:35:12;0.30;99.90
59148;DHT22;44930;52.878;6.168;2023-01-20T00:42:31;0.10;99.90
59148;DHT22;44930;52.878;6.168;2023-01-20T00:52:15;0.30;99.90
59148;DHT22;44930;52.878;6.168;2023-01-20T00:54:43;-0.10;99.90
59148;DHT22;44930;52.878;6.168;2023-01-20T01:06:53;0.10;99.90
59148;DHT22;44930;52.878;6.168;2023-01-20T01:09:18;0.00;99.90
59148;DHT22;44930;52.878;6.168;2023-01-20T01:14:11;0.30;99.90
59148;DHT22;44930;52.878;6.168;2023-01-20T01:16:37;0.10;99.90
59148;DHT22;44930;52.878;6.168;2023-01-20T01:21:29;0.30;99.90
59148;DHT22;44930;52.878;6.168;2023-01-20T01:23:54;0.40;99.90
59148;DHT22;44930;52.878;6.168;2023-01-20T01:26:20;0.20;99.90
59148;DHT22;44930;52.878;6.168;2023-01-20T01:31:16;-0.10;99.90
59148;DHT22;44930;52.878;6.168;2023-01-20T01:36:12;0.30;99.90
59148;DHT22;44930;52.878;6.168;2023-01-20T01:41:04;0.30;99.90
59148;DHT22;44930;52.878;6.168;2023-01-20T01:43:33;0.30;99.90
59148;DHT22;44930;52.878;6.168;2023-01-20T01:48:43;0.40;99.90
59148;DHT22;44930;52.878;6.168;2023-01-20T01:51:16;0.30;99.90
59148;DHT22;44930;52.878;6.168;2023-01-20T01:53:47;0.30;99.90
59148;DHT22;44930;52.878;6.168;2023-01-20T01:58:45;0.40;99.90
59148;DHT22;44930;52.878;6.168;2023-01-20T02:01:13;0.30;99.90
59148;DHT22;44930;52.878;6.168;2023-01-20T02:08:46;0.40;99.90
59148;DHT22;44930;52.878;6.168;2023-01-20T02:11:12;0.20;99.90
59148;DHT22;44930;52.878;6.168;2023-01-20T02:16:25;0.20;99.90
59148;DHT22;44930;52.878;6.168;2023-01-20T02:21:51;0.10;99.90
59148;DHT22;44930;52.878;6.168;2023-01-20T02:35:16;0.30;99.90
59148;DHT22;44930;52.878;6.168;2023-01-20T02:37:45;0.20;99.90
59148;DHT22;44930;52.878;6.168;2023-01-20T02:43:07;0.40;99.90
59148;DHT22;44930;52.878;6.168;2023-01-20T02:51:16;0.60;99.90
59148;DHT22;44930;52.878;6.168;2023-01-20T02:53:48;0.30;99.90
59148;DHT22;44930;52.878;6.168;2023-01-20T02:56:16;0.40;99.90
59148;DHT22;44930;52.878;6.168;2023-01-20T03:01:24;0.80;99.90
59148;DHT22;44930;52.878;6.168;2023-01-20T03:08:50;0.30;99.90
59148;DHT22;44930;52.878;6.168;2023-01-20T03:11:17;0.30;99.90
59148;DHT22;44930;52.878;6.168;2023-01-20T03:13:51;0.40;99.90
59148;DHT22;44930;52.878;6.168;2023-01-20T03:16:24;0.50;99.90
59148;DHT22;44930;52.878;6.168;2023-01-20T03:18:51;0.30;99.90
59148;DHT22;44930;52.878;6.168;2023-01-20T03:21:16;0.30;99.90
59148;DHT22;44930;52.878;6.168;2023-01-20T03:23:46;0.40;99.90
59148;DHT22;44930;52.878;6.168;2023-01-20T03:26:14;0.50;99.90
59148;DHT22;44930;52.878;6.168;2023-01-20T03:31:22;0.30;99.90
59148;DHT22;44930;52.878;6.168;2023-01-20T03:33:50;0.30;99.90
59148;DHT22;44930;52.878;6.168;2023-01-20T03:38:44;0.30;99.90
59148;DHT22;44930;52.878;6.168;2023-01-20T03:41:16;0.40;99.90
59148;DHT22;44930;52.878;6.168;2023-01-20T03:43:56;0.50;99.90
59148;DHT22;44930;52.878;6.168;2023-01-20T03:52:31;0.50;99.90
59148;DHT22;44930;52.878;6.168;2023-01-20T03:55:02;0.40;99.90
59148;DHT22;44930;52.878;6.168;2023-01-20T03:57:37;0.50;99.90
59148;DHT22;44930;52.878;6.168;2023-01-20T04:00:07;0.20;99.90
59148;DHT22;44930;52.878;6.168;2023-01-20T04:10:00;0.60;99.90
59148;DHT22;44930;52.878;6.168;2023-01-20T04:14:53;0.50;99.90
59148;DHT22;44930;52.878;6.168;2023-01-20T04:17:19;0.50;99.90
59148;DHT22;44930;52.878;6.168;2023-01-20T04:22:15;0.50;99.90
59148;DHT22;44930;52.878;6.168;2023-01-20T04:27:11;0.60;99.90
59148;DHT22;44930;52.878;6.168;2023-01-20T04:29:36;0.50;99.90
59148;DHT22;44930;52.878;6.168;2023-01-20T04:32:02;0.30;99.90
59148;DHT22;44930;52.878;6.168;2023-01-20T04:36:54;0.60;99.90
59148;DHT22;44930;52.878;6.168;2023-01-20T04:39:20;0.60;99.90
59148;DHT22;44930;52.878;6.168;2023-01-20T04:41:46;0.60;99.90
59148;DHT22;44930;52.878;6.168;2023-01-20T04:44:12;0.70;99.90
59148;DHT22;44930;52.878;6.168;2023-01-20T04:46:38;0.60;99.90
59148;DHT22;44930;52.878;6.168;2023-01-20T04:49:03;0.70;99.90
59148;DHT22;44930;52.878;6.168;2023-01-20T04:51:31;0.70;99.90
59148;DHT22;44930;52.878;6.168;2023-01-20T04:53:57;0.60;99.90
59148;DHT22;44930;52.878;6.168;2023-01-20T04:56:23;0.60;99.90
59148;DHT22;44930;52.878;6.168;2023-01-20T04:58:49;0.60;99.90
59148;DHT22;44930;52.878;6.168;2023-01-20T05:01:14;0.60;99.90
59148;DHT22;44930;52.878;6.168;2023-01-20T05:03:40;0.80;99.90
59148;DHT22;44930;52.878;6.168;2023-01-20T05:06:05;0.70;99.90
59148;DHT22;44930;52.878;6.168;2023-01-20T05:08:31;0.60;99.90
59148;DHT22;44930;52.878;6.168;2023-01-20T05:10:57;0.70;99.90
59148;DHT22;44930;52.878;6.168;2023-01-20T05:13:23;0.70;99.90
59148;DHT22;44930;52.878;6.168;2023-01-20T05:15:48;0.80;99.90
59148;DHT22;44930;52.878;6.168;2023-01-20T05:18:14;0.80;99.90
59148;DHT22;44930;52.878;6.168;2023-01-20T05:20:39;0.90;99.90
59148;DHT22;44930;52.878;6.168;2023-01-20T05:27:58;0.50;99.90
59148;DHT22;44930;52.878;6.168;2023-01-20T05:30:24;0.60;99.90
59148;DHT22;44930;52.878;6.168;2023-01-20T05:32:50;0.60;99.90
59148;DHT22;44930;52.878;6.168;2023-01-20T05:37:42;0.60;99.90
59148;DHT22;44930;52.878;6.168;2023-01-20T05:42:34;0.60;99.90
59148;DHT22;44930;52.878;6.168;2023-01-20T05:45:00;0.50;99.90
59148;DHT22;44930;52.878;6.168;2023-01-20T05:47:25;0.50;99.90
59148;DHT22;44930;52.878;6.168;2023-01-20T05:52:17;0.50;99.90
59148;DHT22;44930;52.878;6.168;2023-01-20T05:57:08;0.60;99.90
59148;DHT22;44930;52.878;6.168;2023-01-20T05:59:34;0.60;99.90
59148;DHT22;44930;52.878;6.168;2023-01-20T06:04:26;0.50;99.90
59148;DHT22;44930;52.878;6.168;2023-01-20T06:14:09;0.60;99.90
59148;DHT22;44930;52.878;6.168;2023-01-20T06:16:35;0.20;99.90
59148;DHT22;44930;52.878;6.168;2023-01-20T06:19:00;0.70;99.90
59148;DHT22;44930;52.878;6.168;2023-01-20T06:21:26;0.70;99.90
59148;DHT22;44930;52.878;6.168;2023-01-20T06:26:18;0.70;99.90
59148;DHT22;44930;52.878;6.168;2023-01-20T06:31:14;0.50;99.90
59148;DHT22;44930;52.878;6.168;2023-01-20T06:33:41;0.60;99.90
59148;DHT22;44930;52.878;6.168;2023-01-20T06:36:08;0.70;99.90
59148;DHT22;44930;52.878;6.168;2023-01-20T06:38:37;0.60;99.90
59148;DHT22;44930;52.878;6.168;2023-01-20T06:41:05;1.00;99.90
59148;DHT22;44930;52.878;6.168;2023-01-20T06:43:33;0.90;99.90
59148;DHT22;44930;52.878;6.168;2023-01-20T06:46:00;0.70;99.90
59148;DHT22;44930;52.878;6.168;2023-01-20T06:48:26;0.70;99.90
59148;DHT22;44930;52.878;6.168;2023-01-20T06:50:52;0.80;99.90
59148;DHT22;44930;52.878;6.168;2023-01-20T06:53:17;0.70;99.90
59148;DHT22;44930;52.878;6.168;2023-01-20T06:55:43;0.60;99.90
59148;DHT22;44930;52.878;6.168;2023-01-20T06:58:09;0.80;99.90
59148;DHT22;44930;52.878;6.168;2023-01-20T07:00:35;0.50;99.90
59148;DHT22;44930;52.878;6.168;2023-01-20T07:03:00;0.70;99.90
59148;DHT22;44930;52.878;6.168;2023-01-20T07:05:26;0.60;99.90
59148;DHT22;44930;52.878;6.168;2023-01-20T07:07:51;0.70;99.90
59148;DHT22;44930;52.878;6.168;2023-01-20T07:10:17;0.80;99.90
59148;DHT22;44930;52.878;6.168;2023-01-20T07:12:42;0.80;99.90
59148;DHT22;44930;52.878;6.168;2023-01-20T07:17:34;0.70;99.90
59148;DHT22;44930;52.878;6.168;2023-01-20T07:24:51;0.90;99.90
59148;DHT22;44930;52.878;6.168;2023-01-20T07:27:17;0.80;99.90
59148;DHT22;44930;52.878;6.168;2023-01-20T07:29:42;0.80;99.90
59148;DHT22;44930;52.878;6.168;2023-01-20T07:32:08;0.80;99.90
59148;DHT22;44930;52.878;6.168;2023-01-20T07:36:59;0.80;99.90
59148;DHT22;44930;52.878;6.168;2023-01-20T07:39:28;0.70;99.90
59148;DHT22;44930;52.878;6.168;2023-01-20T07:44:20;0.80;99.90
59148;DHT22;44930;52.878;6.168;2023-01-20T07:46:45;0.90;99.90
59148;DHT22;44930;52.878;6.168;2023-01-20T07:49:11;1.00;99.90
59148;DHT22;44930;52.878;6.168;2023-01-20T07:51:36;0.70;99.90
59148;DHT22;44930;52.878;6.168;2023-01-20T07:54:04;0.90;99.90
59148;DHT22;44930;52.878;6.168;2023-01-20T07:58:56;0.90;99.90
59148;DHT22;44930;52.878;6.168;2023-01-20T08:03:48;0.90;99.90
59148;DHT22;44930;52.878;6.168;2023-01-20T08:06:15;0.90;99.90
59148;DHT22;44930;52.878;6.168;2023-01-20T08:08:41;1.00;99.90
59148;DHT22;44930;52.878;6.168;2023-01-20T08:11:08;0.90;99.90
59148;DHT22;44930;52.878;6.168;2023-01-20T08:13:35;0.90;99.90
59148;DHT22;44930;52.878;6.168;2023-01-20T08:16:06;0.90;99.90
59148;DHT22;44930;52.878;6.168;2023-01-20T08:18:32;1.00;99.90
59148;DHT22;44930;52.878;6.168;2023-01-20T08:23:24;1.10;99.90
59148;DHT22;44930;52.878;6.168;2023-01-20T08:25:59;1.10;99.90
59148;DHT22;44930;52.878;6.168;2023-01-20T08:28:27;1.10;99.90
59148;DHT22;44930;52.878;6.168;2023-01-20T08:30:53;1.20;99.90
59148;DHT22;44930;52.878;6.168;2023-01-20T08:33:18;1.40;99.90
59148;DHT22;44930;52.878;6.168;2023-01-20T08:38:11;1.20;99.90
59148;DHT22;44930;52.878;6.168;2023-01-20T08:40:40;1.10;99.90
59148;DHT22;44930;52.878;6.168;2023-01-20T08:43:06;1.10;99.90
59148;DHT22;44930;52.878;6.168;2023-01-20T08:45:31;1.30;99.90
59148;DHT22;44930;52.878;6.168;2023-01-20T08:47:57;1.30;99.90
59148;DHT22;44930;52.878;6.168;2023-01-20T08:55:15;1.40;99.90
59148;DHT22;44930;52.878;6.168;2023-01-20T08:57:41;1.40;99.90
59148;DHT22;44930;52.878;6.168;2023-01-20T09:00:08;1.40;99.90
59148;DHT22;44930;52.878;6.168;2023-01-20T09:02:36;1.40;99.90
59148;DHT22;44930;52.878;6.168;2023-01-20T09:05:03;1.70;99.90
59148;DHT22;44930;52.878;6.168;2023-01-20T09:07:28;1.50;99.90
59148;DHT22;44930;52.878;6.168;2023-01-20T09:09:54;1.60;99.90
59148;DHT22;44930;52.878;6.168;2023-01-20T09:12:20;1.50;99.90
59148;DHT22;44930;52.878;6.168;2023-01-20T09:17:11;1.60;99.90
59148;DHT22;44930;52.878;6.168;2023-01-20T09:22:03;1.50;99.90
59148;DHT22;44930;52.878;6.168;2023-01-20T09:24:28;1.60;99.90
59148;DHT22;44930;52.878;6.168;2023-01-20T09:26:54;1.60;99.90
59148;DHT22;44930;52.878;6.168;2023-01-20T09:29:21;1.50;99.90
59148;DHT22;44930;52.878;6.168;2023-01-20T09:34:17;1.50;99.90
59148;DHT22;44930;52.878;6.168;2023-01-20T09:36:52;1.60;99.90
59148;DHT22;44930;52.878;6.168;2023-01-20T09:42:43;1.50;99.90
59148;DHT22;44930;52.878;6.168;2023-01-20T09:45:50;1.60;99.90
59148;DHT22;44930;52.878;6.168;2023-01-20T09:49:15;1.60;99.90
59148;DHT22;44930;52.878;6.168;2023-01-20T09:51:56;1.90;99.90
59148;DHT22;44930;52.878;6.168;2023-01-20T09:54:50;1.80;99.90
59148;DHT22;44930;52.878;6.168;2023-01-20T09:59:54;1.90;99.90
59148;DHT22;44930;52.878;6.168;2023-01-20T10:02:26;2.00;99.90
59148;DHT22;44930;52.878;6.168;2023-01-20T10:05:01;1.90;99.90
59148;DHT22;44930;52.878;6.168;2023-01-20T10:07:32;1.80;99.90
59148;DHT22;44930;52.878;6.168;2023-01-20T10:12:39;1.90;99.90
59148;DHT22;44930;52.878;6.168;2023-01-20T10:15:13;2.00;99.90
59148;DHT22;44930;52.878;6.168;2023-01-20T10:17:53;1.90;99.90
59148;DHT22;44930;52.878;6.168;2023-01-20T10:25:49;2.30;99.90
59148;DHT22;44930;52.878;6.168;2023-01-20T10:28:31;1.90;99.90
59148;DHT22;44930;52.878;6.168;2023-01-20T10:33:36;2.30;99.90
59148;DHT22;44930;52.878;6.168;2023-01-20T10:36:03;2.10;99.90
59148;DHT22;44930;52.878;6.168;2023-01-20T10:41:18;2.30;99.90
59148;DHT22;44930;52.878;6.168;2023-01-20T10:43:49;2.10;99.90
59148;DHT22;44930;52.878;6.168;2023-01-20T10:49:33;2.00;99.90
59148;DHT22;44930;52.878;6.168;2023-01-20T10:57:58;2.00;99.90
59148;DHT22;44930;52.878;6.168;2023-01-20T11:00:28;2.20;99.90
59148;DHT22;44930;52.878;6.168;2023-01-20T11:02:57;2.10;99.90
59148;DHT22;44930;52.878;6.168;2023-01-20T11:05:26;2.30;99.90
59148;DHT22;44930;52.878;6.168;2023-01-20T11:07:53;2.10;99.90
59148;DHT22;44930;52.878;6.168;2023-01-20T11:10:26;2.10;99.90
59148;DHT22;44930;52.878;6.168;2023-01-20T11:12:57;2.50;99.90
59148;DHT22;44930;52.878;6.168;2023-01-20T11:15:30;2.20;99.90
59148;DHT22;44930;52.878;6.168;2023-01-20T11:31:17;2.20;99.90
59148;DHT22;44930;52.878;6.168;2023-01-20T11:41:28;1.90;99.90
59148;DHT22;44930;52.878;6.168;2023-01-20T11:43:57;2.10;99.90
59148;DHT22;44930;52.878;6.168;2023-01-20T11:46:28;2.00;99.90
59148;DHT22;44930;52.878;6.168;2023-01-20T11:51:43;2.10;99.90
59148;DHT22;44930;52.878;6.168;2023-01-20T11:54:14;2.00;99.90
59148;DHT22;44930;52.878;6.168;2023-01-20T11:56:42;2.00;99.90
59148;DHT22;44930;52.878;6.168;2023-01-20T11:59:21;2.20;99.90
59148;DHT22;44930;52.878;6.168;2023-01-20T12:01:55;2.00;99.90
59148;DHT22;44930;52.878;6.168;2023-01-20T12:04:38;2.00;99.90
59148;DHT22;44930;52.878;6.168;2023-01-20T12:07:10;1.80;99.90
59148;DHT22;44930;52.878;6.168;2023-01-20T12:09:44;1.90;99.90
59148;DHT22;44930;52.878;6.168;2023-01-20T12:14:54;2.00;99.90
59148;DHT22;44930;52.878;6.168;2023-01-20T12:22:52;2.10;99.90
59148;DHT22;44930;52.878;6.168;2023-01-20T12:25:26;2.10;99.90
59148;DHT22;44930;52.878;6.168;2023-01-20T12:27:56;2.00;99.90
59148;DHT22;44930;52.878;6.168;2023-01-20T12:32:59;2.10;99.90
59148;DHT22;44930;52.878;6.168;2023-01-20T12:35:28;2.00;99.90
59148;DHT22;44930;52.878;6.168;2023-01-20T12:37:58;1.90;99.90
59148;DHT22;44930;52.878;6.168;2023-01-20T12:40:37;1.80;99.90
59148;DHT22;44930;52.878;6.168;2023-01-20T12:48:53;2.00;99.90
59148;DHT22;44930;52.878;6.168;2023-01-20T12:51:32;2.00;99.90
59148;DHT22;44930;52.878;6.168;2023-01-20T13:10:44;2.40;99.90
59148;DHT22;44930;52.878;6.168;2023-01-20T13:19:15;2.40;99.90
59148;DHT22;44930;52.878;6.168;2023-01-20T13:21:41;2.30;99.90
59148;DHT22;44930;52.878;6.168;2023-01-20T13:24:14;2.70;99.90
59148;DHT22;44930;52.878;6.168;2023-01-20T13:26:45;2.30;99.90
59148;DHT22;44930;52.878;6.168;2023-01-20T13:29:22;2.50;99.90
59148;DHT22;44930;52.878;6.168;2023-01-20T13:34:50;2.50;99.90
59148;DHT22;44930;52.878;6.168;2023-01-20T13:39:44;2.50;99.90
59148;DHT22;44930;52.878;6.168;2023-01-20T13:42:29;2.40;99.90
59148;DHT22;44930;52.878;6.168;2023-01-20T13:50:31;2.30;99.90
59148;DHT22;44930;52.878;6.168;2023-01-20T13:53:04;2.50;99.90
59148;DHT22;44930;52.878;6.168;2023-01-20T13:55:49;2.60;99.90
59148;DHT22;44930;52.878;6.168;2023-01-20T13:58:17;2.40;99.90
59148;DHT22;44930;52.878;6.168;2023-01-20T14:00:48;2.60;99.90
59148;DHT22;44930;52.878;6.168;2023-01-20T14:05:56;2.70;99.90
59148;DHT22;44930;52.878;6.168;2023-01-20T14:08:23;2.50;99.90
59148;DHT22;44930;52.878;6.168;2023-01-20T14:10:49;2.50;99.90
59148;DHT22;44930;52.878;6.168;2023-01-20T14:13:23;2.30;99.90
59148;DHT22;44930;52.878;6.168;2023-01-20T14:18:18;2.50;99.90
59148;DHT22;44930;52.878;6.168;2023-01-20T14:21:15;2.70;99.90
59148;DHT22;44930;52.878;6.168;2023-01-20T14:23:41;2.60;99.90
59148;DHT22;44930;52.878;6.168;2023-01-20T14:26:14;2.50;99.90
59148;DHT22;44930;52.878;6.168;2023-01-20T14:31:34;2.70;99.90
59148;DHT22;44930;52.878;6.168;2023-01-20T14:36:50;2.50;99.90
59148;DHT22;44930;52.878;6.168;2023-01-20T14:39:21;2.30;99.90
59148;DHT22;44930;52.878;6.168;2023-01-20T14:41:50;2.50;99.90
59148;DHT22;44930;52.878;6.168;2023-01-20T14:44:24;2.10;99.90
59148;DHT22;44930;52.878;6.168;2023-01-20T14:49:19;2.40;99.90
59148;DHT22;44930;52.878;6.168;2023-01-20T14:51:47;2.40;99.90
59148;DHT22;44930;52.878;6.168;2023-01-20T14:54:37;2.50;99.90
59148;DHT22;44930;52.878;6.168;2023-01-20T14:59:36;2.40;99.90
59148;DHT22;44930;52.878;6.168;2023-01-20T15:02:05;2.40;99.90
59148;DHT22;44930;52.878;6.168;2023-01-20T15:04:36;2.30;99.90
59148;DHT22;44930;52.878;6.168;2023-01-20T15:09:33;2.40;99.90
59148;DHT22;44930;52.878;6.168;2023-01-20T15:12:34;3.00;99.90
59148;DHT22;44930;52.878;6.168;2023-01-20T15:15:24;2.30;99.90
59148;DHT22;44930;52.878;6.168;2023-01-20T15:23:02;2.50;99.90
59148;DHT22;44930;52.878;6.168;2023-01-20T15:25:28;2.30;99.90
59148;DHT22;44930;52.878;6.168;2023-01-20T15:27:55;2.30;99.90
59148;DHT22;44930;52.878;6.168;2023-01-20T15:30:22;2.20;99.90
59148;DHT22;44930;52.878;6.168;2023-01-20T15:32:52;2.80;99.90
59148;DHT22;44930;52.878;6.168;2023-01-20T15:35:21;2.20;99.90
59148;DHT22;44930;52.878;6.168;2023-01-20T15:37:48;2.20;99.90
59148;DHT22;44930;52.878;6.168;2023-01-20T15:40:19;2.20;99.90
59148;DHT22;44930;52.878;6.168;2023-01-20T15:42:46;2.20;99.90
59148;DHT22;44930;52.878;6.168;2023-01-20T15:45:12;2.10;99.90
59148;DHT22;44930;52.878;6.168;2023-01-20T15:47:39;2.10;99.90
59148;DHT22;44930;52.878;6.168;2023-01-20T15:52:38;2.20;99.90
59148;DHT22;44930;52.878;6.168;2023-01-20T15:55:04;2.10;99.90
59148;DHT22;44930;52.878;6.168;2023-01-20T15:57:30;2.20;99.90
59148;DHT22;44930;52.878;6.168;2023-01-20T15:59:55;2.10;99.90
59148;DHT22;44930;52.878;6.168;2023-01-20T16:02:22;2.00;99.90
59148;DHT22;44930;52.878;6.168;2023-01-20T16:04:48;2.00;99.90
59148;DHT22;44930;52.878;6.168;2023-01-20T16:07:16;2.10;99.90
59148;DHT22;44930;52.878;6.168;2023-01-20T16:09:42;2.00;99.90
59148;DHT22;44930;52.878;6.168;2023-01-20T16:12:12;1.90;99.90
59148;DHT22;44930;52.878;6.168;2023-01-20T16:14:38;1.90;99.90
59148;DHT22;44930;52.878;6.168;2023-01-20T16:17:15;2.20;99.90
59148;DHT22;44930;52.878;6.168;2023-01-20T16:19:41;2.00;99.90
59148;DHT22;44930;52.878;6.168;2023-01-20T16:22:07;1.90;99.90
59148;DHT22;44930;52.878;6.168;2023-01-20T16:24:33;1.90;99.90
59148;DHT22;44930;52.878;6.168;2023-01-20T16:26:59;1.90;99.90
59148;DHT22;44930;52.878;6.168;2023-01-20T16:29:26;2.00;99.90
59148;DHT22;44930;52.878;6.168;2023-01-20T16:31:52;1.90;99.90
59148;DHT22;44930;52.878;6.168;2023-01-20T16:34:17;1.90;99.90
59148;DHT22;44930;52.878;6.168;2023-01-20T16:36:43;1.90;99.90
59148;DHT22;44930;52.878;6.168;2023-01-20T16:39:09;1.90;99.90
59148;DHT22;44930;52.878;6.168;2023-01-20T16:41:35;1.90;99.90
59148;DHT22;44930;52.878;6.168;2023-01-20T16:44:01;1.90;99.90
59148;DHT22;44930;52.878;6.168;2023-01-20T16:46:29;1.90;99.90
59148;DHT22;44930;52.878;6.168;2023-01-20T16:48:56;1.70;99.90
59148;DHT22;44930;52.878;6.168;2023-01-20T16:51:24;1.90;99.90
59148;DHT22;44930;52.878;6.168;2023-01-20T16:53:51;1.10;99.90
59148;DHT22;44930;52.878;6.168;2023-01-20T16:56:28;1.90;99.90
59148;DHT22;44930;52.878;6.168;2023-01-20T16:58:55;1.90;99.90
59148;DHT22;44930;52.878;6.168;2023-01-20T17:01:25;1.80;99.90
59148;DHT22;44930;52.878;6.168;2023-01-20T17:03:52;1.80;99.90
59148;DHT22;44930;52.878;6.168;2023-01-20T17:06:20;1.90;99.90
59148;DHT22;44930;52.878;6.168;2023-01-20T17:08:51;1.90;99.90
59148;DHT22;44930;52.878;6.168;2023-01-20T17:16:16;1.90;99.90
59148;DHT22;44930;52.878;6.168;2023-01-20T17:18:42;1.90;99.90
59148;DHT22;44930;52.878;6.168;2023-01-20T17:21:11;2.00;99.90
59148;DHT22;44930;52.878;6.168;2023-01-20T17:26:05;1.60;99.90
59148;DHT22;44930;52.878;6.168;2023-01-20T17:28:31;1.90;99.90
59148;DHT22;44930;52.878;6.168;2023-01-20T17:36:00;2.00;99.90
59148;DHT22;44930;52.878;6.168;2023-01-20T17:38:28;2.00;99.90
59148;DHT22;44930;52.878;6.168;2023-01-20T17:48:12;1.90;99.90
59148;DHT22;44930;52.878;6.168;2023-01-20T17:50:37;1.90;99.90
59148;DHT22;44930;52.878;6.168;2023-01-20T17:53:03;2.00;99.90
59148;DHT22;44930;52.878;6.168;2023-01-20T17:55:29;1.90;99.90
59148;DHT22;44930;52.878;6.168;2023-01-20T17:57:54;2.20;99.90
59148;DHT22;44930;52.878;6.168;2023-01-20T18:00:20;1.90;99.90
59148;DHT22;44930;52.878;6.168;2023-01-20T18:02:46;1.90;99.90
59148;DHT22;44930;52.878;6.168;2023-01-20T18:05:11;1.90;99.90
59148;DHT22;44930;52.878;6.168;2023-01-20T18:07:37;1.90;99.90
59148;DHT22;44930;52.878;6.168;2023-01-20T18:14:55;2.00;99.90
59148;DHT22;44930;52.878;6.168;2023-01-20T18:17:23;1.90;99.90
59148;DHT22;44930;52.878;6.168;2023-01-20T18:19:48;2.00;99.90
59148;DHT22;44930;52.878;6.168;2023-01-20T18:22:14;2.00;99.90
59148;DHT22;44930;52.878;6.168;2023-01-20T18:24:40;1.90;99.90
59148;DHT22;44930;52.878;6.168;2023-01-20T18:27:06;1.90;99.90
59148;DHT22;44930;52.878;6.168;2023-01-20T18:29:32;2.00;99.90
59148;DHT22;44930;52.878;6.168;2023-01-20T18:32:01;1.90;99.90
59148;DHT22;44930;52.878;6.168;2023-01-20T18:34:26;1.90;99.90
59148;DHT22;44930;52.878;6.168;2023-01-20T18:36:52;1.90;99.90
59148;DHT22;44930;52.878;6.168;2023-01-20T18:39:22;1.90;99.90
59148;DHT22;44930;52.878;6.168;2023-01-20T18:41:49;1.80;99.90
59148;DHT22;44930;52.878;6.168;2023-01-20T18:46:41;1.90;99.90
59148;DHT22;44930;52.878;6.168;2023-01-20T18:49:07;2.00;99.90
59148;DHT22;44930;52.878;6.168;2023-01-20T18:51:33;1.80;99.90
59148;DHT22;44930;52.878;6.168;2023-01-20T18:54:11;2.10;99.90
59148;DHT22;44930;52.878;6.168;2023-01-20T18:56:37;1.90;99.90
59148;DHT22;44930;52.878;6.168;2023-01-20T18:59:04;1.80;99.90
59148;DHT22;44930;52.878;6.168;2023-01-20T19:01:38;1.80;99.90
59148;DHT22;44930;52.878;6.168;2023-01-20T19:04:06;1.90;99.90
59148;DHT22;44930;52.878;6.168;2023-01-20T19:06:36;1.90;99.90
59148;DHT22;44930;52.878;6.168;2023-01-20T19:09:03;1.90;99.90
59148;DHT22;44930;52.878;6.168;2023-01-20T19:11:30;1.90;99.90
59148;DHT22;44930;52.878;6.168;2023-01-20T19:16:26;2.00;99.90
59148;DHT22;44930;52.878;6.168;2023-01-20T19:18:56;2.00;99.90
59148;DHT22;44930;52.878;6.168;2023-01-20T19:21:23;1.90;99.90
59148;DHT22;44930;52.878;6.168;2023-01-20T19:23:54;2.20;99.90
59148;DHT22;44930;52.878;6.168;2023-01-20T19:26:21;1.90;99.90
59148;DHT22;44930;52.878;6.168;2023-01-20T19:28:48;2.00;99.90
59148;DHT22;44930;52.878;6.168;2023-01-20T19:31:19;1.90;99.90
59148;DHT22;44930;52.878;6.168;2023-01-20T19:33:45;2.50;99.90
59148;DHT22;44930;52.878;6.168;2023-01-20T19:36:13;1.80;99.90
59148;DHT22;44930;52.878;6.168;2023-01-20T19:38:40;1.80;99.90
59148;DHT22;44930;52.878;6.168;2023-01-20T19:41:17;2.00;99.90
59148;DHT22;44930;52.878;6.168;2023-01-20T19:43:44;1.90;99.90
59148;DHT22;44930;52.878;6.168;2023-01-20T19:46:15;1.80;99.90
59148;DHT22;44930;52.878;6.168;2023-01-20T19:48:41;1.80;99.90
59148;DHT22;44930;52.878;6.168;2023-01-20T19:51:10;1.90;99.90
59148;DHT22;44930;52.878;6.168;2023-01-20T19:53:36;1.70;99.90
59148;DHT22;44930;52.878;6.168;2023-01-20T19:56:12;1.70;99.90
59148;DHT22;44930;52.878;6.168;2023-01-20T19:58:38;1.80;99.90
59148;DHT22;44930;52.878;6.168;2023-01-20T20:03:40;1.50;99.90
59148;DHT22;44930;52.878;6.168;2023-01-20T20:06:16;1.40;99.90
59148;DHT22;44930;52.878;6.168;2023-01-20T20:08:45;1.40;99.90
59148;DHT22;44930;52.878;6.168;2023-01-20T20:13:36;1.10;99.90
59148;DHT22;44930;52.878;6.168;2023-01-20T20:16:03;1.00;99.90
59148;DHT22;44930;52.878;6.168;2023-01-20T20:23:21;0.90;99.90
59148;DHT22;44930;52.878;6.168;2023-01-20T20:25:51;0.80;99.90
59148;DHT22;44930;52.878;6.168;2023-01-20T20:28:24;0.80;99.90
59148;DHT22;44930;52.878;6.168;2023-01-20T20:30:51;0.70;99.90
59148;DHT22;44930;52.878;6.168;2023-01-20T20:33:20;0.70;99.90
59148;DHT22;44930;52.878;6.168;2023-01-20T20:40:37;0.60;99.90
59148;DHT22;44930;52.878;6.168;2023-01-20T20:43:03;0.60;99.90
59148;DHT22;44930;52.878;6.168;2023-01-20T20:45:29;0.50;99.90
59148;DHT22;44930;52.878;6.168;2023-01-20T20:47:56;0.50;99.90
59148;DHT22;44930;52.878;6.168;2023-01-20T20:50:21;0.40;99.90
59148;DHT22;44930;52.878;6.168;2023-01-20T20:52:48;0.40;99.90
59148;DHT22;44930;52.878;6.168;2023-01-20T20:55:15;0.40;99.90
59148;DHT22;44930;52.878;6.168;2023-01-20T20:57:40;0.30;99.90
59148;DHT22;44930;52.878;6.168;2023-01-20T21:00:06;0.30;99.90
59148;DHT22;44930;52.878;6.168;2023-01-20T21:02:32;0.30;99.90
59148;DHT22;44930;52.878;6.168;2023-01-20T21:04:58;0.30;99.90
59148;DHT22;44930;52.878;6.168;2023-01-20T21:14:42;0.20;99.90
59148;DHT22;44930;52.878;6.168;2023-01-20T21:29:19;0.40;99.90
59148;DHT22;44930;52.878;6.168;2023-01-20T21:31:45;0.20;99.90
59148;DHT22;44930;52.878;6.168;2023-01-20T21:34:14;0.30;99.90
59148;DHT22;44930;52.878;6.168;2023-01-20T21:39:13;0.20;99.90
59148;DHT22;44930;52.878;6.168;2023-01-20T21:44:13;0.50;99.90
59148;DHT22;44930;52.878;6.168;2023-01-20T21:47:00;0.30;99.90
59148;DHT22;44930;52.878;6.168;2023-01-20T21:49:26;0.20;99.90
59148;DHT22;44930;52.878;6.168;2023-01-20T21:52:12;0.10;99.90
59148;DHT22;44930;52.878;6.168;2023-01-20T21:59:49;-0.10;99.90
59148;DHT22;44930;52.878;6.168;2023-01-20T22:02:15;0.00;99.90
59148;DHT22;44930;52.878;6.168;2023-01-20T22:07:07;0.10;99.90
59148;DHT22;44930;52.878;6.168;2023-01-20T22:09:32;0.00;99.90
59148;DHT22;44930;52.878;6.168;2023-01-20T22:26:35;-0.10;99.90
59148;DHT22;44930;52.878;6.168;2023-01-20T22:33:56;-0.20;99.90